Time;durP1;ratioP1;P1;durP2;ratioP2;P2;SDS_P1;SDS_P2;PMS_P1;PMS_P2;Temp;Humidity;BMP_temperature;BMP_pressure;BME280_temperature;BME280_humidity;BME280_pressure;Samples;Min_cycle;Max_cycle;Signal;HPM_P1;HPM_P2
2022/05/05 00:00:48;;;;;;;4.78;2.40;;;12.40;20.20;;;;;;5005466;28;34319;-76
2022/05/05 00:03:14;;;;;;;3.63;2.35;;;12.40;20.30;;;;;;5005270;28;34316;-76
2022/05/05 00:05:40;;;;;;;4.50;2.50;;;12.30;20.40;;;;;;5004663;28;36655;-76
2022/05/05 00:08:09;;;;;;;4.00;2.53;;;12.30;20.50;;;;;;5005145;28;34054;-76
2022/05/05 00:15:58;;;;;;;3.13;2.42;;;12.30;20.80;;;;;;5010142;28;34803;-76
2022/05/05 00:18:24;;;;;;;3.15;2.40;;;12.30;20.90;;;;;;5008359;28;34159;-76
2022/05/05 00:20:50;;;;;;;3.47;2.65;;;12.20;20.80;;;;;;5008113;28;34163;-76
2022/05/05 00:23:15;;;;;;;5.57;2.60;;;12.20;21.40;;;;;;5008423;28;33971;-77
2022/05/05 00:25:42;;;;;;;4.18;2.28;;;12.20;20.80;;;;;;5006967;28;36058;-76
2022/05/05 00:28:08;;;;;;;3.42;2.25;;;12.20;20.90;;;;;;5007936;28;34050;-76
2022/05/05 00:30:34;;;;;;;2.47;2.25;;;12.20;21.00;;;;;;5008295;28;34131;-76
2022/05/05 00:32:59;;;;;;;2.58;2.38;;;12.20;21.00;;;;;;5008097;28;34148;-76
2022/05/05 00:35:25;;;;;;;5.80;2.72;;;12.20;21.20;;;;;;4991637;28;35754;-76
2022/05/05 00:37:51;;;;;;;5.20;2.63;;;12.10;21.30;;;;;;4975427;28;34463;-77
2022/05/05 00:40:17;;;;;;;6.22;2.50;;;12.10;21.40;;;;;;5007876;28;34366;-77
2022/05/05 00:42:43;;;;;;;3.70;2.35;;;12.10;21.50;;;;;;5007542;28;34482;-76
2022/05/05 00:45:10;;;;;;;4.70;2.58;;;12.10;21.70;;;;;;5007792;28;35926;-76
2022/05/05 00:47:36;;;;;;;5.28;2.75;;;12.10;21.80;;;;;;5025189;28;34339;-76
2022/05/05 00:50:02;;;;;;;4.53;2.40;;;12.00;21.80;;;;;;5025075;28;34311;-76
2022/05/05 00:52:28;;;;;;;3.83;2.83;;;12.00;21.90;;;;;;5007726;28;34131;-77
2022/05/05 00:54:56;;;;;;;6.40;2.75;;;12.00;22.00;;;;;;5007806;28;34342;-76
2022/05/05 00:57:23;;;;;;;5.13;2.58;;;11.90;22.70;;;;;;5007473;28;34201;-77
2022/05/05 00:59:51;;;;;;;3.60;2.50;;;11.90;22.60;;;;;;4991535;28;34487;-76
2022/05/05 01:02:17;;;;;;;3.83;2.58;;;11.80;22.60;;;;;;5025392;28;34234;-76
2022/05/05 01:04:43;;;;;;;3.60;2.33;;;11.80;22.70;;;;;;5007059;28;34214;-76
2022/05/05 01:07:09;;;;;;;2.80;2.60;;;11.80;22.80;;;;;;5007590;28;34062;-76
2022/05/05 01:09:36;;;;;;;4.53;2.40;;;11.70;23.00;;;;;;4990679;28;34168;-76
2022/05/05 01:12:02;;;;;;;3.97;2.33;;;11.60;23.00;;;;;;5025112;28;34614;-76
2022/05/05 01:14:30;;;;;;;7.68;2.58;;;11.60;23.00;;;;;;4974759;28;35845;-76
2022/05/05 01:16:58;;;;;;;2.85;2.33;;;11.60;23.20;;;;;;4990660;28;34172;-76
2022/05/05 01:19:24;;;;;;;3.40;2.45;;;11.50;23.70;;;;;;5025103;28;34177;-76
2022/05/05 01:21:52;;;;;;;4.72;2.65;;;11.50;23.50;;;;;;5007329;28;34597;-76
2022/05/05 01:28:10;;;;;;;3.38;2.50;;;11.50;23.90;;;;;;5005906;28;36008;-76
2022/05/05 01:29:46;;;;;;;3.35;2.78;;;11.40;23.80;;;;;;4995179;28;34128;-76
2022/05/05 01:32:12;;;;;;;6.47;2.70;;;11.30;24.00;;;;;;4990603;28;34082;-76
2022/05/05 01:34:38;;;;;;;3.60;2.58;;;11.20;24.00;;;;;;5006755;28;35623;-76
2022/05/05 01:37:04;;;;;;;3.92;2.70;;;11.20;24.10;;;;;;5007511;28;34222;-76
2022/05/05 01:39:30;;;;;;;3.13;2.70;;;11.10;24.30;;;;;;5006991;28;34560;-76
2022/05/05 01:41:56;;;;;;;5.65;2.85;;;11.10;24.30;;;;;;5024638;28;34159;-76
2022/05/05 01:44:22;;;;;;;3.42;2.60;;;11.00;24.40;;;;;;5006842;28;35017;-76
2022/05/05 01:46:48;;;;;;;3.25;2.97;;;11.00;24.60;;;;;;5006425;28;34051;-76
2022/05/05 01:49:14;;;;;;;5.97;2.92;;;10.90;24.70;;;;;;4990479;28;34575;-76
2022/05/05 01:51:40;;;;;;;4.05;2.70;;;10.80;24.70;;;;;;4990695;28;34511;-76
2022/05/05 01:54:06;;;;;;;5.20;2.72;;;10.80;24.90;;;;;;5006580;28;35868;-76
2022/05/05 01:56:32;;;;;;;5.13;2.78;;;10.70;25.00;;;;;;4990499;28;34401;-76
2022/05/05 01:58:58;;;;;;;5.00;3.25;;;10.70;25.10;;;;;;4973979;28;34599;-76
2022/05/05 02:01:23;;;;;;;5.03;3.10;;;10.60;25.10;;;;;;4990271;28;34099;-76
2022/05/05 02:03:50;;;;;;;5.28;3.08;;;10.60;25.40;;;;;;5006448;28;35590;-77
2022/05/05 02:06:16;;;;;;;4.47;2.85;;;10.40;25.40;;;;;;4990087;28;34267;-76
2022/05/05 02:08:42;;;;;;;5.65;3.10;;;10.40;25.50;;;;;;5006127;28;34190;-76
2022/05/05 02:11:08;;;;;;;4.32;3.28;;;10.30;25.60;;;;;;5006101;28;34009;-76
2022/05/05 02:13:34;;;;;;;4.13;2.92;;;10.30;25.70;;;;;;4989746;28;35630;-76
2022/05/05 02:16:00;;;;;;;4.30;3.28;;;10.20;25.70;;;;;;5006642;28;34205;-76
2022/05/05 02:18:27;;;;;;;6.00;3.28;;;10.20;25.90;;;;;;5006501;28;34484;-76
2022/05/05 02:20:53;;;;;;;4.65;3.22;;;10.10;25.90;;;;;;5006111;28;34213;-76
2022/05/05 02:23:19;;;;;;;6.05;3.65;;;10.00;25.90;;;;;;5006469;28;36544;-76
2022/05/05 02:25:45;;;;;;;4.05;2.92;;;10.00;26.10;;;;;;5006256;28;34206;-76
2022/05/05 02:28:11;;;;;;;6.35;3.28;;;9.90;26.20;;;;;;5006448;28;34288;-76
2022/05/05 02:30:37;;;;;;;6.22;3.33;;;9.90;26.30;;;;;;5023891;28;34106;-76
2022/05/05 02:33:03;;;;;;;4.18;3.10;;;9.90;26.30;;;;;;5023257;28;34074;-76
2022/05/05 02:35:29;;;;;;;4.43;3.40;;;9.80;26.30;;;;;;5006243;28;34349;-76
2022/05/05 02:40:36;;;;;;;7.40;3.55;;;9.70;26.70;;;;;;5023489;28;34039;-76
2022/05/05 02:43:03;;;;;;;4.88;3.70;;;9.70;26.80;;;;;;5005714;28;36948;-76
2022/05/05 02:45:29;;;;;;;5.32;3.53;;;9.70;26.90;;;;;;5023453;28;34166;-76
2022/05/05 02:47:55;;;;;;;4.65;3.10;;;9.70;27.00;;;;;;5006580;28;34525;-76
2022/05/05 02:50:22;;;;;;;4.45;3.30;;;9.70;27.10;;;;;;4986526;28;34496;-76
2022/05/05 02:52:48;;;;;;;6.63;3.20;;;9.70;27.10;;;;;;4986872;28;35938;-76
2022/05/05 02:55:14;;;;;;;5.68;3.65;;;9.70;27.20;;;;;;5005654;28;34467;-76
2022/05/05 02:57:40;;;;;;;5.18;3.67;;;9.80;27.20;;;;;;5006007;28;34223;-76
2022/05/05 03:00:11;;;;;;;5.82;3.58;;;9.80;27.10;;;;;;5023843;28;34353;-76
2022/05/05 03:02:37;;;;;;;6.65;3.55;;;9.80;27.10;;;;;;4970487;28;35799;-76
2022/05/05 03:05:03;;;;;;;6.32;3.78;;;9.80;27.10;;;;;;5005466;28;34230;-76
2022/05/05 03:07:29;;;;;;;5.45;3.70;;;9.80;27.20;;;;;;4989623;28;34350;-76
2022/05/05 03:09:56;;;;;;;5.38;3.67;;;9.80;27.10;;;;;;4982057;28;34257;-76
2022/05/05 03:12:21;;;;;;;4.90;3.50;;;9.80;27.10;;;;;;4986089;28;35766;-76
2022/05/05 03:14:48;;;;;;;5.32;3.95;;;9.90;27.20;;;;;;5003430;28;34184;-76
2022/05/05 03:17:14;;;;;;;6.43;3.65;;;9.90;27.30;;;;;;5003440;28;34039;-76
2022/05/05 03:19:41;;;;;;;6.60;3.88;;;9.90;27.30;;;;;;4986544;28;34438;-76
2022/05/05 03:22:07;;;;;;;6.55;3.55;;;9.90;27.40;;;;;;4985882;28;35683;-76
2022/05/05 03:24:34;;;;;;;3.80;3.42;;;9.90;27.30;;;;;;4969513;28;34356;-76
2022/05/05 03:27:01;;;;;;;7.45;3.42;;;9.90;27.50;;;;;;4986025;28;34292;-76
2022/05/05 03:29:27;;;;;;;7.70;3.63;;;9.90;27.50;;;;;;4986000;28;34095;-76
2022/05/05 03:31:53;;;;;;;5.85;3.85;;;9.90;27.50;;;;;;5002820;28;34068;-76
2022/05/05 03:34:20;;;;;;;5.97;3.45;;;9.90;27.60;;;;;;4953958;28;34154;-76
2022/05/05 03:36:46;;;;;;;5.88;4.10;;;9.90;27.70;;;;;;5003315;28;34178;-76
2022/05/05 03:39:12;;;;;;;5.88;3.83;;;9.90;27.60;;;;;;4986245;28;34168;-76
2022/05/05 03:41:38;;;;;;;7.28;4.10;;;9.90;27.60;;;;;;4968853;28;36557;-76
2022/05/05 03:44:05;;;;;;;7.18;4.25;;;9.90;27.60;;;;;;4985162;28;34312;-76
2022/05/05 03:46:32;;;;;;;6.22;3.97;;;9.90;27.60;;;;;;4986756;28;34334;-76
2022/05/05 03:48:58;;;;;;;6.78;4.32;;;9.90;27.60;;;;;;4972796;28;34508;-76
2022/05/05 03:51:24;;;;;;;4.32;3.65;;;9.90;27.60;;;;;;5006341;28;34478;-76
2022/05/05 03:53:51;;;;;;;6.22;4.13;;;9.90;27.80;;;;;;5006566;28;34056;-76
2022/05/05 03:56:17;;;;;;;7.63;4.20;;;9.90;27.80;;;;;;4988951;28;34317;-76
2022/05/05 03:58:43;;;;;;;5.63;3.97;;;9.90;27.80;;;;;;4956476;28;34601;-76
2022/05/05 04:01:09;;;;;;;6.82;3.97;;;9.90;27.90;;;;;;4972267;28;36613;-76
2022/05/05 04:03:41;;;;;;;6.32;4.00;;;10.00;27.90;;;;;;4988904;28;34056;-76
2022/05/05 04:06:08;;;;;;;7.93;4.00;;;9.90;27.80;;;;;;4990107;28;34380;-76
2022/05/05 04:08:36;;;;;;;6.65;4.05;;;10.00;27.90;;;;;;4972508;28;34486;-76
2022/05/05 04:11:02;;;;;;;7.75;4.00;;;10.00;27.90;;;;;;5004806;28;36314;-76
2022/05/05 04:13:28;;;;;;;6.05;3.83;;;10.00;28.60;;;;;;5008324;28;34122;-76
2022/05/05 04:15:54;;;;;;;5.53;3.78;;;10.00;27.90;;;;;;4991679;28;34157;-76
2022/05/05 04:18:21;;;;;;;7.15;3.90;;;10.00;27.90;;;;;;5026273;28;34284;-76
2022/05/05 04:20:47;;;;;;;6.75;4.00;;;10.00;28.00;;;;;;5007861;28;35511;-76
2022/05/05 04:23:13;;;;;;;8.50;4.32;;;10.00;28.00;;;;;;5008086;28;34390;-76
2022/05/05 04:25:41;;;;;;;10.02;4.45;;;10.00;28.00;;;;;;5008046;28;34206;-76
2022/05/05 04:28:08;;;;;;;7.38;4.18;;;10.00;28.30;;;;;;5008332;28;34140;-76
2022/05/05 04:30:35;;;;;;;7.40;4.28;;;10.00;28.30;;;;;;5007660;28;34283;-76
2022/05/05 04:33:01;;;;;;;7.68;4.30;;;10.00;28.20;;;;;;5008145;28;34060;-76
2022/05/05 04:35:27;;;;;;;8.32;4.40;;;10.00;28.10;;;;;;5008243;28;34232;-76
2022/05/05 04:37:53;;;;;;;7.22;4.30;;;10.00;28.20;;;;;;4990028;28;34430;-76
2022/05/05 04:40:19;;;;;;;6.35;4.45;;;10.00;28.20;;;;;;5007818;28;35594;-76
2022/05/05 04:42:45;;;;;;;5.70;4.10;;;10.00;28.20;;;;;;5008298;28;34167;-76
2022/05/05 04:45:11;;;;;;;7.00;4.13;;;10.00;28.20;;;;;;5025591;28;34158;-76
2022/05/05 04:47:38;;;;;;;5.18;3.88;;;10.00;28.20;;;;;;5025596;28;34090;-76
2022/05/05 04:50:05;;;;;;;4.97;4.13;;;10.00;28.40;;;;;;5024821;28;34883;-76
2022/05/05 04:52:32;;;;;;;9.27;4.78;;;10.00;28.50;;;;;;5007843;28;34526;-76
2022/05/05 04:54:59;;;;;;;6.72;4.05;;;10.00;28.50;;;;;;5025032;28;34300;-76
2022/05/05 04:57:26;;;;;;;6.38;4.35;;;10.00;28.50;;;;;;5008046;28;34253;-76
2022/05/05 04:59:53;;;;;;;7.72;3.97;;;10.10;28.60;;;;;;5007023;28;35641;-76
2022/05/05 05:02:19;;;;;;;6.35;4.57;;;10.10;28.80;;;;;;4991430;28;34509;-76
2022/05/05 05:04:45;;;;;;;5.53;3.88;;;10.10;28.80;;;;;;5007226;28;34091;-76
2022/05/05 05:07:11;;;;;;;9.75;4.90;;;10.10;28.80;;;;;;5025473;28;34038;-76
2022/05/05 05:09:37;;;;;;;5.53;3.92;;;10.20;28.80;;;;;;5007142;28;35490;-76
2022/05/05 05:12:04;;;;;;;7.18;4.32;;;10.20;28.90;;;;;;5007292;28;34208;-76
2022/05/05 05:14:29;;;;;;;11.00;4.05;;;10.20;28.80;;;;;;4974742;28;34236;-76
2022/05/05 05:16:55;;;;;;;5.38;3.70;;;10.30;28.90;;;;;;5007522;28;34261;-76
2022/05/05 05:19:21;;;;;;;6.90;3.95;;;10.30;28.90;;;;;;4990666;28;35670;-76
2022/05/05 05:21:47;;;;;;;5.80;4.15;;;10.30;28.90;;;;;;4990395;28;34212;-76
2022/05/05 05:24:14;;;;;;;8.05;4.50;;;10.40;28.90;;;;;;4990944;28;34133;-76
2022/05/05 05:26:40;;;;;;;10.70;4.40;;;10.40;28.90;;;;;;5007772;28;34579;-76
2022/05/05 05:29:06;;;;;;;10.02;4.50;;;10.50;29.60;;;;;;5006853;28;35666;-76
2022/05/05 05:31:32;;;;;;;6.57;4.22;;;10.50;28.90;;;;;;5007058;28;34356;-76
2022/05/05 05:33:59;;;;;;;6.05;4.05;;;10.60;28.80;;;;;;5006981;28;34252;-76
2022/05/05 05:36:25;;;;;;;6.22;4.35;;;10.60;28.70;;;;;;4990723;28;34322;-76
2022/05/05 05:38:51;;;;;;;6.53;4.00;;;10.70;28.70;;;;;;4990227;28;35528;-76
2022/05/05 05:41:18;;;;;;;9.00;4.75;;;10.80;28.60;;;;;;5006580;28;34667;-76
2022/05/05 05:43:44;;;;;;;7.53;4.30;;;11.00;28.60;;;;;;5024162;28;34285;-76
2022/05/05 05:46:10;;;;;;;7.55;4.80;;;11.10;28.50;;;;;;5024343;28;34179;-76
2022/05/05 05:48:38;;;;;;;6.38;3.72;;;11.30;28.20;;;;;;5006723;28;35541;-76
2022/05/05 05:51:05;;;;;;;6.63;4.63;;;11.50;28.00;;;;;;5006569;28;34301;-77
2022/05/05 05:53:32;;;;;;;8.02;4.82;;;11.70;27.80;;;;;;4990926;28;34308;-77
2022/05/05 05:55:58;;;;;;;7.88;4.53;;;11.90;27.30;;;;;;5006405;28;34067;-76
2022/05/05 05:58:24;;;;;;;6.90;4.50;;;12.10;27.10;;;;;;5005529;28;35870;-76
2022/05/05 06:00:51;;;;;;;6.40;4.55;;;12.30;26.70;;;;;;5006765;28;34177;-76
2022/05/05 06:05:58;;;;;;;9.63;4.53;;;12.50;26.20;;;;;;5024029;28;34257;-76
2022/05/05 06:08:24;;;;;;;5.90;4.35;;;12.60;26.70;;;;;;4989835;28;36477;-76
2022/05/05 06:10:49;;;;;;;7.32;4.93;;;12.70;25.90;;;;;;5023128;28;34078;-76
2022/05/05 06:13:15;;;;;;;7.15;4.55;;;12.80;25.80;;;;;;5006778;28;34398;-76
2022/05/05 06:15:41;;;;;;;6.47;4.35;;;13.00;25.70;;;;;;5006861;28;34315;-76
2022/05/05 06:18:07;;;;;;;8.13;4.53;;;13.10;25.40;;;;;;5006370;28;35522;-76
2022/05/05 06:20:33;;;;;;;7.82;4.97;;;13.30;25.20;;;;;;5006292;28;34656;-76
2022/05/05 06:23:00;;;;;;;8.07;5.28;;;13.60;24.70;;;;;;5006254;28;34150;-76
2022/05/05 06:25:26;;;;;;;8.23;5.38;;;13.80;24.50;;;;;;5006369;28;34142;-77
2022/05/05 06:27:53;;;;;;;11.07;4.97;;;13.90;24.20;;;;;;5023471;28;34394;-76
2022/05/05 06:30:19;;;;;;;8.55;4.80;;;14.10;23.80;;;;;;5006080;28;34206;-76
2022/05/05 06:32:45;;;;;;;7.22;4.60;;;14.30;23.70;;;;;;5024094;28;34034;-76
2022/05/05 06:35:12;;;;;;;7.18;4.53;;;14.60;23.30;;;;;;5024200;28;34132;-76
2022/05/05 06:37:38;;;;;;;8.57;4.93;;;15.00;22.60;;;;;;5006601;28;34597;-76
2022/05/05 06:40:06;;;;;;;9.07;5.35;;;15.50;21.70;;;;;;5005951;28;34369;-76
2022/05/05 06:42:32;;;;;;;10.23;5.38;;;15.80;20.90;;;;;;5023777;28;34161;-77
2022/05/05 06:44:58;;;;;;;9.43;5.50;;;16.10;20.00;;;;;;5005881;28;34442;-76
2022/05/05 06:47:24;;;;;;;11.18;6.00;;;16.50;19.60;;;;;;4989303;28;36526;-77
2022/05/05 06:49:50;;;;;;;9.63;5.97;;;16.90;19.00;;;;;;4989743;28;34115;-76
2022/05/05 06:52:16;;;;;;;14.75;6.30;;;17.30;18.80;;;;;;5006024;28;34162;-76
2022/05/05 06:54:42;;;;;;;10.07;5.68;;;17.50;18.00;;;;;;5005692;28;34168;-77
2022/05/05 06:57:09;;;;;;;8.27;5.88;;;17.60;17.60;;;;;;5023282;28;34406;-76
2022/05/05 06:59:35;;;;;;;11.98;5.70;;;17.70;17.40;;;;;;5023771;28;34260;-76
2022/05/05 07:02:02;;;;;;;13.27;6.35;;;17.80;17.40;;;;;;5006046;28;34332;-78
2022/05/05 07:07:13;;;;;;;8.40;5.50;;;17.90;16.90;;;;;;5022321;28;34179;-77
2022/05/05 07:12:21;;;;;;;10.77;6.40;;;17.80;17.40;;;;;;5007669;28;34130;-76
2022/05/05 07:14:47;;;;;;;9.75;5.55;;;17.60;17.40;;;;;;5023251;28;34149;-76
2022/05/05 07:17:13;;;;;;;11.73;5.70;;;17.50;17.60;;;;;;5005312;28;35125;-77
2022/05/05 07:19:40;;;;;;;11.40;6.05;;;17.40;17.90;;;;;;4989202;28;34095;-76
2022/05/05 07:22:06;;;;;;;11.93;6.53;;;17.40;18.50;;;;;;5007391;28;34442;-76
2022/05/05 07:24:33;;;;;;;12.50;6.63;;;17.50;18.10;;;;;;4991580;28;34471;-76
2022/05/05 07:27:00;;;;;;;12.38;6.78;;;17.50;18.00;;;;;;5008128;28;35552;-76
2022/05/05 07:29:26;;;;;;;10.52;6.35;;;17.60;17.80;;;;;;5008828;28;34265;-77
2022/05/05 07:31:52;;;;;;;13.48;6.55;;;17.70;17.70;;;;;;5008698;28;34277;-76
2022/05/05 07:34:19;;;;;;;11.73;6.47;;;17.80;17.60;;;;;;5026433;28;34203;-77
2022/05/05 07:36:45;;;;;;;9.10;6.20;;;17.90;17.60;;;;;;5025928;28;35132;-76
2022/05/05 07:39:12;;;;;;;11.95;6.88;;;18.00;17.50;;;;;;5008446;28;34424;-76
2022/05/05 07:41:38;;;;;;;12.13;7.03;;;18.00;17.40;;;;;;4988819;28;34359;-76
2022/05/05 07:44:06;;;;;;;11.93;6.63;;;18.00;17.30;;;;;;5008547;28;34618;-76
2022/05/05 07:46:34;;;;;;;9.18;6.15;;;17.90;17.20;;;;;;5009158;28;34423;-76
2022/05/05 07:49:01;;;;;;;11.27;6.57;;;17.90;17.20;;;;;;4988211;28;34240;-77
2022/05/05 07:51:28;;;;;;;13.38;7.47;;;17.80;17.10;;;;;;5006148;28;34326;-76
2022/05/05 07:56:36;;;;;;;11.15;6.40;;;17.80;17.60;;;;;;5025309;28;34142;-77
2022/05/05 07:59:02;;;;;;;8.35;6.13;;;17.80;17.50;;;;;;5007996;28;34145;-77
2022/05/05 08:01:35;;;;;;;11.75;6.35;;;17.70;17.60;;;;;;5025729;28;34130;-78
2022/05/05 08:04:05;;;;;;;13.35;6.40;;;17.70;17.40;;;;;;5026044;28;34457;-77
2022/05/05 08:06:32;;;;;;;12.48;6.78;;;17.70;17.50;;;;;;5006705;28;35716;-77
2022/05/05 08:08:58;;;;;;;13.25;6.53;;;17.60;17.70;;;;;;5007492;28;34103;-76
2022/05/05 08:11:24;;;;;;;11.88;6.75;;;17.60;17.80;;;;;;5007537;28;34342;-77
2022/05/05 08:13:50;;;;;;;13.93;7.43;;;17.60;17.70;;;;;;5007468;28;34100;-76
2022/05/05 08:16:16;;;;;;;12.60;7.20;;;17.70;17.80;;;;;;4991444;28;36287;-77
2022/05/05 08:18:42;;;;;;;18.65;6.85;;;17.70;17.80;;;;;;5007565;28;34199;-77
2022/05/05 08:21:10;;;;;;;11.95;6.97;;;17.80;17.60;;;;;;5007937;28;34339;-77
2022/05/05 08:23:37;;;;;;;15.95;6.43;;;17.90;17.70;;;;;;5007958;28;34344;-77
2022/05/05 08:28:44;;;;;;;13.57;7.25;;;18.00;17.30;;;;;;5024674;28;34488;-77
2022/05/05 08:31:11;;;;;;;10.50;7.03;;;18.00;17.30;;;;;;4988178;28;34374;-77
2022/05/05 08:33:38;;;;;;;11.32;7.35;;;18.10;17.20;;;;;;4975144;28;34272;-77
2022/05/05 08:36:06;;;;;;;10.98;7.03;;;18.30;17.00;;;;;;5007663;28;35205;-77
2022/05/05 08:41:17;;;;;;;10.20;6.60;;;18.50;16.60;;;;;;5004724;28;34261;-77
2022/05/05 08:43:43;;;;;;;13.82;8.23;;;18.80;16.50;;;;;;4978820;28;34182;-77
2022/05/05 08:46:13;;;;;;;13.27;6.95;;;19.00;16.10;;;;;;4991012;28;35677;-77
2022/05/05 08:48:43;;;;;;;12.93;6.90;;;19.30;15.60;;;;;;4991404;28;34185;-77
2022/05/05 08:51:18;;;;;;;12.98;7.70;;;19.50;15.40;;;;;;5025283;28;34343;-76
2022/05/05 08:53:48;;;;;;;13.18;7.10;;;19.80;14.40;;;;;;5025528;28;34426;-77
2022/05/05 08:56:14;;;;;;;11.80;7.38;;;20.10;14.60;;;;;;4987600;28;36516;-76
2022/05/05 08:58:40;;;;;;;12.35;6.75;;;20.50;14.20;;;;;;5022099;28;34146;-77
2022/05/05 09:01:06;;;;;;;12.05;7.43;;;20.60;13.80;;;;;;5007373;28;34148;-78
2022/05/05 09:03:33;;;;;;;14.10;7.93;;;20.80;13.50;;;;;;4960181;28;34107;-77
2022/05/05 09:06:01;;;;;;;15.82;7.72;;;20.90;13.10;;;;;;4989206;28;36813;-76
2022/05/05 09:08:32;;;;;;;15.23;7.82;;;21.10;13.10;;;;;;5007460;28;34184;-76
2022/05/05 09:11:01;;;;;;;14.35;7.78;;;21.30;10.80;;;;;;4990647;28;34214;-78
2022/05/05 09:13:34;;;;;;;16.83;7.13;;;21.50;12.50;;;;;;4988404;28;34594;-76
2022/05/05 09:16:02;;;;;;;14.23;8.65;;;21.80;11.50;;;;;;4971022;28;35783;-76
2022/05/05 09:18:31;;;;;;;12.40;7.30;;;21.90;11.60;;;;;;4968392;28;34454;-76
2022/05/05 09:20:59;;;;;;;13.05;7.75;;;22.00;11.10;;;;;;4988645;28;34225;-75
2022/05/05 09:24:34;;;;;;;12.85;7.30;;;22.00;10.90;;;;;;5007031;28;34388;-77
2022/05/05 09:26:30;;;;;;;11.57;7.55;;;22.40;8.90;;;;;;5000199;28;34940;-76
2022/05/05 09:28:57;;;;;;;12.63;7.20;;;22.60;10.60;;;;;;5005024;28;34272;-75
2022/05/05 09:31:24;;;;;;;12.85;7.45;;;22.80;10.20;;;;;;5007259;28;34186;-74
2022/05/05 09:33:50;;;;;;;12.32;6.60;;;22.90;10.10;;;;;;5024327;28;34015;-75
2022/05/05 09:36:25;;;;;;;14.18;6.85;;;23.10;9.90;;;;;;5024142;28;34097;-76
2022/05/05 09:38:55;;;;;;;11.98;6.93;;;23.20;9.10;;;;;;5025050;28;34530;-75
2022/05/05 09:41:23;;;;;;;15.35;7.47;;;23.30;8.70;;;;;;5007552;28;34230;-75
2022/05/05 09:43:50;;;;;;;17.20;6.93;;;23.10;8.60;;;;;;4984994;28;34087;-75
2022/05/05 09:46:32;;;;;;;12.30;6.47;;;23.00;9.10;;;;;;4999533;28;35526;-75
2022/05/05 09:49:18;;;;;;;13.00;7.40;;;22.70;4.30;;;;;;5005553;28;34164;-77
2022/05/05 10:05:46;;;;;;;9.85;6.10;;;22.60;6.50;;;;;;5007895;28;34569;-76
2022/05/05 10:08:19;;;;;;;13.18;7.00;;;22.90;8.00;;;;;;4972882;28;34282;-75
2022/05/05 10:10:46;;;;;;;14.27;7.10;;;23.20;6.90;;;;;;4986637;28;34287;-76
2022/05/05 10:13:13;;;;;;;9.63;5.88;;;23.40;7.60;;;;;;4983189;28;34197;-74
2022/05/05 10:15:40;;;;;;;9.90;6.00;;;23.70;7.50;;;;;;4973730;28;34116;-75
2022/05/05 10:18:06;;;;;;;9.25;5.55;;;23.70;7.10;;;;;;5001571;28;36840;-76
2022/05/05 10:20:34;;;;;;;10.82;5.88;;;23.90;7.20;;;;;;5000625;28;34253;-78
2022/05/05 10:23:28;;;;;;;9.05;5.65;;;24.10;5.70;;;;;;4988841;28;34101;-75
2022/05/05 10:25:55;;;;;;;10.10;6.10;;;24.20;4.50;;;;;;4992256;28;34525;-74
2022/05/05 10:28:46;;;;;;;11.73;5.85;;;24.40;6.40;;;;;;4996900;28;36451;-76
2022/05/05 10:31:41;;;;;;;9.77;5.60;;;24.80;2.90;;;;;;5001043;28;34391;-77
2022/05/05 10:34:13;;;;;;;10.65;5.70;;;25.20;2.70;;;;;;4993622;28;34202;-74
2022/05/05 10:36:39;;;;;;;9.38;5.07;;;25.50;5.60;;;;;;5003874;28;34665;-76
2022/05/05 10:39:23;;;;;;;10.52;4.88;;;25.80;5.20;;;;;;5005421;28;35550;-75
2022/05/05 10:41:51;;;;;;;10.55;5.50;;;26.00;1.00;;;;;;5006168;28;34140;-76
2022/05/05 10:44:22;;;;;;;10.18;5.75;;;26.10;4.70;;;;;;5006646;28;34255;-74
2022/05/05 10:46:54;;;;;;;8.13;4.70;;;26.20;3.60;;;;;;5006177;28;34619;-76
2022/05/05 10:49:41;;;;;;;7.75;5.15;;;26.30;1.00;;;;;;5023509;28;35225;-74
2022/05/05 10:52:28;;;;;;;9.65;4.82;;;26.10;1.00;;;;;;4989910;28;34251;-75
2022/05/05 10:54:55;;;;;;;9.93;5.13;;;26.00;1.00;;;;;;4997201;28;34351;-75
2022/05/05 10:57:41;;;;;;;8.15;4.82;;;26.10;4.00;;;;;;5023550;28;34509;-75
2022/05/05 11:00:18;;;;;;;9.25;4.93;;;26.30;1.00;;;;;;5009560;28;34107;-77
2022/05/05 11:03:15;;;;;;;9.13;5.25;;;26.30;1.00;;;;;;5005914;28;34276;-77
2022/05/05 11:05:42;;;;;;;11.52;4.70;;;26.20;1.00;;;;;;5008298;28;34130;-78
2022/05/05 11:08:31;;;;;;;8.00;4.55;;;26.20;3.70;;;;;;5007145;28;34440;-76
2022/05/05 11:13:43;;;;;;;10.90;4.55;;;26.50;3.00;;;;;;5023151;28;34253;-75
2022/05/05 11:22:18;;;;;;;6.22;4.15;;;26.20;2.10;;;;;;5022111;28;34351;-75
2022/05/05 11:24:48;;;;;;;6.68;4.40;;;25.70;1.00;;;;;;5005256;28;34416;-75
2022/05/05 11:27:17;;;;;;;9.40;4.22;;;25.30;2.20;;;;;;4988991;28;34123;-74
2022/05/05 11:29:54;;;;;;;6.82;4.00;;;24.80;2.90;;;;;;5005294;28;33997;-74
2022/05/05 11:32:21;;;;;;;5.78;4.20;;;24.40;1.90;;;;;;4971871;28;34749;-75
2022/05/05 11:34:49;;;;;;;7.53;4.45;;;24.00;3.90;;;;;;5005055;28;34571;-76
2022/05/05 11:37:15;;;;;;;8.68;4.25;;;23.70;3.80;;;;;;4988827;28;34318;-75
2022/05/05 11:39:41;;;;;;;5.40;3.80;;;23.40;4.10;;;;;;5023107;28;34315;-75
2022/05/05 11:42:10;;;;;;;5.22;3.55;;;23.20;4.20;;;;;;5004914;28;35516;-75
2022/05/05 11:44:39;;;;;;;5.40;3.58;;;23.00;3.90;;;;;;4989506;28;34179;-74
2022/05/05 11:47:21;;;;;;;5.72;3.42;;;22.90;4.40;;;;;;5022119;28;34091;-75
2022/05/05 11:49:51;;;;;;;7.65;3.67;;;22.70;1.30;;;;;;5005387;28;34166;-74
2022/05/05 11:52:18;;;;;;;6.97;4.25;;;22.60;4.50;;;;;;5005121;28;35699;-74
2022/05/05 11:54:47;;;;;;;8.63;3.67;;;22.50;4.60;;;;;;5004943;28;34225;-75
2022/05/05 11:57:29;;;;;;;5.32;3.80;;;22.50;3.90;;;;;;4989041;28;34385;-74
2022/05/05 12:02:37;;;;;;;7.53;4.03;;;22.30;4.40;;;;;;5021916;28;34164;-75
2022/05/05 12:05:03;;;;;;;6.95;3.63;;;22.30;4.30;;;;;;5004113;28;34310;-74
2022/05/05 12:07:29;;;;;;;5.95;3.72;;;22.40;4.20;;;;;;4989564;28;34271;-74
2022/05/05 12:10:07;;;;;;;9.38;3.97;;;22.50;4.10;;;;;;5008315;28;34395;-75
2022/05/05 12:12:35;;;;;;;5.65;4.13;;;22.60;2.80;;;;;;4992537;28;35342;-74
2022/05/05 12:15:05;;;;;;;6.35;3.35;;;22.50;3.90;;;;;;4992557;28;34134;-76
2022/05/05 12:17:41;;;;;;;6.65;3.38;;;22.60;3.30;;;;;;5008244;28;34200;-74
2022/05/05 12:20:09;;;;;;;6.05;4.28;;;22.60;3.90;;;;;;4993250;28;34159;-75
2022/05/05 12:22:39;;;;;;;8.10;3.88;;;22.80;3.90;;;;;;5008226;28;34448;-75
2022/05/05 12:25:16;;;;;;;12.32;3.97;;;23.00;3.60;;;;;;5007768;28;34313;-76
2022/05/05 12:27:44;;;;;;;7.30;4.30;;;23.00;3.80;;;;;;4992303;28;34151;-74
2022/05/05 12:30:12;;;;;;;7.22;3.97;;;23.00;3.60;;;;;;5007615;28;34585;-74
2022/05/05 12:32:54;;;;;;;6.55;4.03;;;23.00;3.50;;;;;;5007941;28;35761;-75
2022/05/05 12:35:32;;;;;;;5.88;3.83;;;23.10;2.30;;;;;;4991584;28;34352;-74
2022/05/05 12:38:00;;;;;;;7.72;3.90;;;23.10;2.30;;;;;;4975973;28;34500;-74
2022/05/05 12:40:27;;;;;;;6.22;3.78;;;23.10;3.60;;;;;;4976289;28;34515;-75
2022/05/05 12:43:04;;;;;;;7.55;4.50;;;23.20;3.50;;;;;;5025258;28;35194;-75
2022/05/05 12:45:33;;;;;;;4.25;3.20;;;23.40;1.00;;;;;;5025136;28;34057;-75
2022/05/05 12:48:01;;;;;;;5.93;3.70;;;23.40;2.80;;;;;;5007817;28;34590;-75
2022/05/05 12:50:35;;;;;;;7.95;3.97;;;23.40;3.20;;;;;;5007655;28;34139;-75
2022/05/05 13:01:21;;;;;;;6.60;3.35;;;23.80;3.30;;;;;;4994847;28;34479;-75
2022/05/05 13:03:48;;;;;;;8.82;3.70;;;24.20;2.80;;;;;;4990797;28;35737;-74
2022/05/05 13:06:14;;;;;;;4.22;3.15;;;24.20;2.60;;;;;;5024321;28;34360;-74
2022/05/05 13:08:40;;;;;;;4.28;2.88;;;24.30;2.70;;;;;;5006873;28;34412;-74
2022/05/05 13:11:06;;;;;;;4.57;3.55;;;24.30;2.60;;;;;;5023625;28;34542;-75
2022/05/05 13:13:32;;;;;;;5.43;3.30;;;24.30;2.60;;;;;;5006847;28;35835;-73
2022/05/05 13:15:58;;;;;;;4.90;3.50;;;24.50;2.60;;;;;;4974343;28;34151;-75
2022/05/05 13:18:25;;;;;;;5.97;3.78;;;24.40;2.40;;;;;;5006238;28;34494;-75
2022/05/05 13:20:51;;;;;;;4.18;3.00;;;24.40;2.30;;;;;;4990369;28;34027;-74
2022/05/05 13:23:17;;;;;;;7.55;3.40;;;24.50;2.20;;;;;;4991165;28;35626;-76
2022/05/05 13:25:42;;;;;;;5.15;3.17;;;24.60;2.20;;;;;;4990865;28;34216;-75
2022/05/05 13:28:08;;;;;;;4.97;3.28;;;24.70;2.60;;;;;;5024908;28;34468;-74
2022/05/05 13:30:34;;;;;;;3.92;2.60;;;24.70;2.30;;;;;;5024741;28;34585;-75
2022/05/05 13:33:00;;;;;;;3.63;2.83;;;24.50;2.40;;;;;;5006651;28;34907;-75
2022/05/05 13:35:26;;;;;;;4.30;3.13;;;24.30;2.20;;;;;;4989873;28;34302;-75
2022/05/05 13:37:53;;;;;;;6.00;2.97;;;24.10;2.50;;;;;;4991063;28;34213;-75
2022/05/05 13:40:19;;;;;;;5.85;3.15;;;23.90;2.60;;;;;;5006504;28;35237;-74
2022/05/05 13:42:45;;;;;;;5.07;3.33;;;23.70;3.00;;;;;;4990653;28;36556;-74
2022/05/05 13:45:11;;;;;;;4.75;3.80;;;23.40;3.20;;;;;;5007351;28;34014;-76
2022/05/05 13:47:37;;;;;;;8.27;4.30;;;23.00;3.60;;;;;;5004724;28;34576;-75
2022/05/05 13:50:04;;;;;;;6.75;3.97;;;22.60;4.00;;;;;;4987539;28;34570;-74
2022/05/05 13:52:30;;;;;;;5.53;3.83;;;22.40;4.40;;;;;;4986966;28;35622;-76